createdAt,value
2022-08-19T00:02:13.405Z,25.43
2022-08-19T00:04:41.206Z,25.32
2022-08-19T00:07:08.751Z,25.28
2022-08-19T00:09:36.564Z,25.33
2022-08-19T00:12:04.327Z,25.40
2022-08-19T00:14:32.504Z,25.31
2022-08-19T00:17:00.437Z,25.12
2022-08-19T00:19:27.497Z,25.23
2022-08-19T00:21:55.418Z,25.14
2022-08-19T00:24:22.966Z,25.20
2022-08-19T00:26:51.403Z,25.16
2022-08-19T00:29:21.805Z,25.14
2022-08-19T00:31:50.776Z,25.20
2022-08-19T00:34:18.160Z,25.07
2022-08-19T00:36:46.024Z,25.23
2022-08-19T00:39:16.400Z,25.18
2022-08-19T00:41:47.890Z,25.02
2022-08-19T00:44:27.194Z,24.99
2022-08-19T00:46:58.476Z,24.88
2022-08-19T00:49:38.729Z,24.70
2022-08-19T00:52:17.546Z,24.57
2022-08-19T00:54:52.392Z,24.57
2022-08-19T00:57:31.010Z,24.46
2022-08-19T01:00:02.300Z,24.29
2022-08-19T01:02:33.291Z,24.40
2022-08-19T01:05:05.817Z,24.26
2022-08-19T01:07:37.647Z,23.82
2022-08-19T01:10:09.952Z,24.09
2022-08-19T01:12:38.037Z,23.73
2022-08-19T01:15:10.777Z,23.90
2022-08-19T01:17:41.084Z,24.04
2022-08-19T01:20:17.437Z,23.81
2022-08-19T01:22:52.205Z,23.84
2022-08-19T01:25:25.078Z,23.83
2022-08-19T01:27:53.851Z,23.62
2022-08-19T01:30:29.608Z,23.66
2022-08-19T01:32:57.463Z,23.72
2022-08-19T01:35:27.749Z,23.79
2022-08-19T01:37:59.959Z,23.72
2022-08-19T01:40:32.524Z,23.60
2022-08-19T01:43:00.645Z,23.60
2022-08-19T01:45:31.197Z,23.71
2022-08-19T01:48:02.344Z,23.68
2022-08-19T01:50:32.663Z,23.69
2022-08-19T01:53:02.466Z,23.79
2022-08-19T01:55:33.830Z,23.59
2022-08-19T01:58:06.364Z,23.51
2022-08-19T02:00:35.956Z,23.34
2022-08-19T02:03:03.092Z,23.36
2022-08-19T02:05:30.241Z,23.37
2022-08-19T02:07:57.897Z,23.23
2022-08-19T02:10:25.051Z,23.08
2022-08-19T02:12:52.546Z,23.06
2022-08-19T02:15:20.991Z,22.97
2022-08-19T02:17:48.900Z,22.80
2022-08-19T02:20:16.739Z,22.93
2022-08-19T02:22:44.578Z,22.87
2022-08-19T02:25:14.091Z,22.83
2022-08-19T02:27:42.167Z,22.95
2022-08-19T02:30:14.600Z,22.83
2022-08-19T02:32:44.407Z,22.89
2022-08-19T02:35:14.201Z,22.74
2022-08-19T02:38:02.073Z,22.65
2022-08-19T02:40:33.057Z,22.55
2022-08-19T02:42:59.982Z,22.56
2022-08-19T02:45:26.980Z,22.45
2022-08-19T02:47:54.107Z,22.60
2022-08-19T02:50:21.079Z,22.48
2022-08-19T02:52:48.077Z,22.56
2022-08-19T02:55:15.067Z,22.52
2022-08-19T02:57:42.957Z,22.54
2022-08-19T03:00:13.734Z,22.61
2022-08-19T03:02:41.483Z,22.41
2022-08-19T03:05:10.646Z,22.47
2022-08-19T03:07:38.373Z,22.20
2022-08-19T03:10:06.817Z,22.26
2022-08-19T03:12:38.704Z,22.30
2022-08-19T03:15:09.835Z,22.26
2022-08-19T03:17:37.077Z,22.42
2022-08-19T03:20:05.819Z,22.37
2022-08-19T03:22:32.756Z,22.24
2022-08-19T03:25:00.483Z,22.37
2022-08-19T03:27:32.533Z,22.25
2022-08-19T03:30:02.163Z,22.31
2022-08-19T03:32:32.562Z,22.31
2022-08-19T03:35:00.981Z,22.37
2022-08-19T03:37:27.940Z,22.31
2022-08-19T03:39:54.932Z,22.39
2022-08-19T03:42:38.143Z,22.49
2022-08-19T03:45:09.576Z,22.55
2022-08-19T03:47:36.514Z,22.57
2022-08-19T03:50:04.432Z,22.41
2022-08-19T03:52:31.696Z,22.48
2022-08-19T03:54:58.677Z,22.54
2022-08-19T03:57:32.013Z,22.72
2022-08-19T04:00:12.886Z,23.03
2022-08-19T04:02:40.774Z,23.92
2022-08-19T04:05:09.240Z,24.67
2022-08-19T04:07:36.611Z,25.25
2022-08-19T04:10:05.672Z,25.96
2022-08-19T04:12:33.233Z,26.49
2022-08-19T04:15:00.291Z,25.83
2022-08-19T04:17:27.261Z,25.21
2022-08-19T04:19:54.234Z,25.59
2022-08-19T04:22:21.248Z,25.91
2022-08-19T04:24:48.227Z,26.99
2022-08-19T04:27:16.026Z,27.89
2022-08-19T04:29:42.951Z,28.53
2022-08-19T04:32:11.882Z,29.03
2022-08-19T04:35:01.455Z,29.10
2022-08-19T04:37:35.149Z,29.03
2022-08-19T04:40:22.736Z,29.82
2022-08-19T04:42:49.829Z,30.45
2022-08-19T04:45:17.567Z,31.32
2022-08-19T04:47:49.186Z,31.46
2022-08-19T04:50:27.491Z,32.24
2022-08-19T04:52:56.404Z,32.70
2022-08-19T04:55:26.394Z,33.63
2022-08-19T04:57:54.009Z,33.64
2022-08-19T05:00:21.008Z,34.30
2022-08-19T05:02:48.004Z,33.51
2022-08-19T05:05:15.116Z,32.56
2022-08-19T05:07:42.092Z,30.95
2022-08-19T05:10:09.504Z,30.13
2022-08-19T05:12:36.590Z,31.82
2022-08-19T05:15:06.698Z,31.78
2022-08-19T05:17:38.377Z,30.66
2022-08-19T05:20:26.622Z,30.41
2022-08-19T05:22:53.870Z,29.75
2022-08-19T05:25:22.619Z,28.92
2022-08-19T05:27:49.779Z,29.57
2022-08-19T05:30:17.921Z,31.76
2022-08-19T05:32:45.515Z,35.01
2022-08-19T05:35:13.079Z,36.45
2022-08-19T05:37:41.554Z,37.60
2022-08-19T05:40:10.761Z,38.58
2022-08-19T05:42:38.546Z,39.09
2022-08-19T05:45:06.469Z,39.89
2022-08-19T05:47:33.531Z,39.49
2022-08-19T05:50:02.767Z,40.23
2022-08-19T05:52:32.470Z,40.08
2022-08-19T05:55:00.585Z,40.11
2022-08-19T05:57:29.821Z,41.39
2022-08-19T05:59:59.082Z,41.57
2022-08-19T06:02:28.458Z,42.14
2022-08-19T06:04:55.439Z,41.94
2022-08-19T06:07:22.723Z,42.98
2022-08-19T06:09:59.327Z,44.24
2022-08-19T06:12:33.787Z,44.30
2022-08-19T06:15:02.860Z,44.21
2022-08-19T06:17:31.713Z,42.02
2022-08-19T06:20:00.145Z,43.24
2022-08-19T06:22:28.243Z,44.81
2022-08-19T06:24:57.056Z,45.44
2022-08-19T06:27:24.532Z,46.35
2022-08-19T06:29:51.574Z,45.32
2022-08-19T06:32:20.079Z,44.56
2022-08-19T06:34:48.000Z,44.69
2022-08-19T06:37:15.603Z,44.38
2022-08-19T06:39:45.254Z,44.37
2022-08-19T06:42:17.618Z,41.05
2022-08-19T06:44:49.281Z,43.30
2022-08-19T06:47:23.428Z,43.54
2022-08-19T06:50:01.180Z,45.29
2022-08-19T06:52:28.710Z,44.81
2022-08-19T06:54:57.170Z,44.82
2022-08-19T06:57:27.827Z,46.76
2022-08-19T06:59:56.972Z,45.08
2022-08-19T07:02:27.340Z,44.67
2022-08-19T07:04:54.874Z,44.50
2022-08-19T07:07:23.272Z,46.96
2022-08-19T07:09:59.974Z,42.40
2022-08-19T07:12:33.945Z,38.76
2022-08-19T07:15:05.289Z,37.59
2022-08-19T07:17:34.690Z,36.58
2022-08-19T07:20:06.968Z,37.64
2022-08-19T07:22:36.921Z,40.30
2022-08-19T07:25:06.476Z,41.73
2022-08-19T07:27:34.922Z,40.71
2022-08-19T07:30:02.212Z,40.49
2022-08-19T07:32:29.333Z,40.30
2022-08-19T07:34:57.142Z,39.72
2022-08-19T07:37:32.473Z,39.78
2022-08-19T07:40:01.234Z,39.50
2022-08-19T07:42:30.798Z,39.60
2022-08-19T07:44:59.470Z,38.64
2022-08-19T07:47:50.189Z,38.62
2022-08-19T07:50:14.313Z,38.70
2022-08-19T07:52:41.782Z,38.65
2022-08-19T07:55:13.596Z,38.51
2022-08-19T07:57:58.411Z,36.58
2022-08-19T08:00:25.663Z,36.54
2022-08-19T08:02:55.225Z,36.87
2022-08-19T08:05:44.210Z,36.63
2022-08-19T08:08:31.428Z,36.17
2022-08-19T08:11:00.251Z,36.22
2022-08-19T08:13:28.116Z,36.65
2022-08-19T08:15:56.743Z,35.58
2022-08-19T08:18:27.520Z,36.00
2022-08-19T08:20:56.951Z,36.65
2022-08-19T08:23:26.877Z,36.74
2022-08-19T08:25:59.161Z,36.46
2022-08-19T08:28:29.679Z,37.54
2022-08-19T08:30:59.017Z,37.54
2022-08-19T08:33:34.044Z,37.00
2022-08-19T08:36:14.249Z,36.62
2022-08-19T08:38:44.846Z,37.48
2022-08-19T08:41:35.927Z,38.04
2022-08-19T08:44:05.755Z,37.55
2022-08-19T08:46:43.377Z,36.64
2022-08-19T08:49:44.827Z,37.30
2022-08-19T08:52:32.083Z,35.92
2022-08-19T08:55:10.118Z,35.50
2022-08-19T08:57:49.815Z,35.66
2022-08-19T09:00:23.415Z,36.67
2022-08-19T09:02:51.665Z,36.84
2022-08-19T09:05:22.702Z,36.11
2022-08-19T09:08:06.239Z,35.22
2022-08-19T09:10:47.368Z,35.17
2022-08-19T09:14:40.666Z,34.86
2022-08-19T09:17:09.055Z,35.37
2022-08-19T09:19:53.558Z,35.50
2022-08-19T09:22:25.804Z,36.08
2022-08-19T09:24:55.958Z,36.30
2022-08-19T09:27:42.245Z,36.35
2022-08-19T09:30:17.105Z,36.39
2022-08-19T09:32:46.374Z,36.32
2022-08-19T09:35:16.017Z,36.50
2022-08-19T09:37:44.516Z,36.22
2022-08-19T09:40:13.656Z,35.67
2022-08-19T09:42:50.379Z,35.90
2022-08-19T09:45:22.645Z,36.32
2022-08-19T09:47:54.110Z,36.13
2022-08-19T09:50:23.072Z,36.30
2022-08-19T09:52:54.193Z,35.62
2022-08-19T09:55:31.949Z,36.09
2022-08-19T09:58:03.095Z,36.34
2022-08-19T10:00:32.019Z,36.09
2022-08-19T10:02:59.370Z,35.49
2022-08-19T10:05:45.077Z,35.63
2022-08-19T10:08:23.921Z,35.41
2022-08-19T10:10:55.904Z,34.79
2022-08-19T10:13:29.432Z,35.17
2022-08-19T10:16:03.990Z,35.15
2022-08-19T10:18:31.224Z,35.23
2022-08-19T10:21:11.800Z,35.81
2022-08-19T10:23:44.833Z,35.69
2022-08-19T10:26:15.571Z,35.55
2022-08-19T10:28:43.214Z,34.88
2022-08-19T10:32:00.011Z,35.09
2022-08-19T10:34:17.551Z,35.00
2022-08-19T10:36:56.716Z,35.00
2022-08-19T10:39:31.152Z,34.95
2022-08-19T10:41:58.940Z,35.21
2022-08-19T10:44:31.963Z,35.49
2022-08-19T10:47:00.324Z,35.64
2022-08-19T10:49:28.016Z,35.62
2022-08-19T10:52:18.548Z,35.30
2022-08-19T10:55:08.675Z,35.15
2022-08-19T10:57:59.367Z,35.47
2022-08-19T11:00:25.069Z,35.56
2022-08-19T11:02:52.704Z,35.47
2022-08-19T11:05:20.462Z,35.24
2022-08-19T11:07:52.603Z,35.15
2022-08-19T11:10:21.851Z,35.84
2022-08-19T11:12:49.471Z,35.56
2022-08-19T11:15:17.157Z,35.25
2022-08-19T11:17:44.727Z,34.88
2022-08-19T11:20:15.486Z,34.75
2022-08-19T11:22:43.263Z,35.10
2022-08-19T11:25:12.335Z,34.71
2022-08-19T11:27:45.603Z,34.32
2022-08-19T11:30:14.507Z,35.04
2022-08-19T11:32:48.577Z,34.98
2022-08-19T11:35:17.271Z,34.85
2022-08-19T11:37:44.291Z,34.81
2022-08-19T11:40:12.391Z,34.79
2022-08-19T11:42:57.858Z,34.89
2022-08-19T11:45:27.365Z,34.71
2022-08-19T11:47:55.140Z,34.62
2022-08-19T11:50:24.344Z,34.39
2022-08-19T11:52:55.418Z,34.01
2022-08-19T11:55:22.454Z,34.25
2022-08-19T11:57:49.534Z,33.97
2022-08-19T12:00:16.830Z,33.99
2022-08-19T12:02:43.903Z,34.11
2022-08-19T12:05:12.938Z,34.03
2022-08-19T12:07:43.445Z,33.90
2022-08-19T12:10:11.658Z,33.81
2022-08-19T12:12:43.510Z,34.05
2022-08-19T12:15:11.952Z,33.98
2022-08-19T12:17:39.400Z,33.68
2022-08-19T12:20:08.006Z,33.69
2022-08-19T12:22:35.979Z,33.47
2022-08-19T12:25:03.712Z,33.48
2022-08-19T12:27:35.731Z,33.56
2022-08-19T12:30:11.917Z,33.57
2022-08-19T12:32:39.292Z,33.54
2022-08-19T12:35:09.170Z,33.51
2022-08-19T12:37:36.303Z,33.81
2022-08-19T12:40:04.529Z,33.64
2022-08-19T12:42:31.565Z,33.38
2022-08-19T12:44:58.580Z,33.49
2022-08-19T12:47:27.458Z,33.72
2022-08-19T12:49:56.016Z,33.89
2022-08-19T12:52:28.173Z,33.56
2022-08-19T12:54:57.438Z,33.55
2022-08-19T12:57:32.838Z,33.87
2022-08-19T13:00:01.959Z,33.74
2022-08-19T13:02:33.159Z,33.63
2022-08-19T13:05:09.389Z,33.83
2022-08-19T13:07:39.437Z,33.83
2022-08-19T13:10:10.012Z,33.83
2022-08-19T13:12:37.038Z,33.66
2022-08-19T13:15:10.847Z,33.50
2022-08-19T13:17:39.938Z,33.56
2022-08-19T13:20:12.203Z,33.57
2022-08-19T13:22:39.740Z,33.49
2022-08-19T13:25:09.069Z,33.30
2022-08-19T13:27:37.299Z,33.53
2022-08-19T13:30:26.551Z,33.64
2022-08-19T13:33:12.324Z,33.44
2022-08-19T13:35:50.650Z,33.82
2022-08-19T13:38:22.191Z,33.69
2022-08-19T13:40:52.475Z,33.54
2022-08-19T13:43:23.832Z,33.25
2022-08-19T13:45:57.104Z,33.46
2022-08-19T13:48:27.571Z,33.31
2022-08-19T13:50:55.216Z,33.04
2022-08-19T13:53:22.516Z,33.44
2022-08-19T13:55:51.402Z,33.38
2022-08-19T13:58:18.493Z,33.19
2022-08-19T14:00:47.799Z,33.35
2022-08-19T14:03:14.999Z,33.53
2022-08-19T14:05:42.072Z,33.42
2022-08-19T14:08:10.330Z,33.24
2022-08-19T14:10:37.374Z,32.93
2022-08-19T14:13:05.618Z,33.12
2022-08-19T14:15:33.233Z,33.18
2022-08-19T14:18:00.567Z,32.92
2022-08-19T14:20:28.240Z,33.07
2022-08-19T14:22:55.799Z,33.13
2022-08-19T14:25:27.760Z,33.24
2022-08-19T14:27:55.318Z,33.13
2022-08-19T14:30:35.518Z,33.18
2022-08-19T14:33:03.702Z,33.31
2022-08-19T14:35:35.674Z,33.03
2022-08-19T14:38:07.317Z,32.85
2022-08-19T14:40:35.685Z,32.76
2022-08-19T14:43:06.083Z,32.96
2022-08-19T14:45:38.011Z,33.01
2022-08-19T14:48:12.517Z,32.77
2022-08-19T14:50:46.559Z,32.69
2022-08-19T14:53:13.590Z,32.72
2022-08-19T14:55:47.617Z,32.70
2022-08-19T14:58:29.247Z,32.59
2022-08-19T15:01:01.165Z,32.54
2022-08-19T15:03:29.462Z,32.55
2022-08-19T15:05:58.755Z,32.40
2022-08-19T15:08:27.045Z,32.40
2022-08-19T15:10:54.222Z,32.41
2022-08-19T15:13:22.260Z,32.85
2022-08-19T15:15:49.814Z,32.63
2022-08-19T15:18:16.838Z,32.74
2022-08-19T15:20:46.748Z,32.50
2022-08-19T15:23:17.802Z,32.30
2022-08-19T15:25:45.044Z,32.62
2022-08-19T15:28:12.575Z,32.55
2022-08-19T15:30:41.214Z,32.65
2022-08-19T15:33:08.390Z,32.73
2022-08-19T15:35:35.389Z,32.56
2022-08-19T15:38:02.414Z,32.62
2022-08-19T15:40:29.496Z,32.45
2022-08-19T15:42:58.810Z,32.33
2022-08-19T15:45:32.570Z,32.21
2022-08-19T15:48:02.253Z,32.27
2022-08-19T15:50:32.089Z,32.35
2022-08-19T15:53:03.509Z,32.29
2022-08-19T15:55:35.595Z,32.28
2022-08-19T15:58:28.500Z,32.43
2022-08-19T16:01:21.607Z,32.23
2022-08-19T16:04:14.903Z,32.04
2022-08-19T16:06:51.315Z,32.04
2022-08-19T16:09:26.466Z,32.23
2022-08-19T16:12:02.735Z,32.20
2022-08-19T16:14:33.297Z,31.98
2022-08-19T16:17:00.301Z,31.69
2022-08-19T16:19:27.605Z,31.64
2022-08-19T16:21:56.930Z,31.81
2022-08-19T16:24:26.908Z,31.57
2022-08-19T16:26:54.727Z,31.44
2022-08-19T16:29:34.549Z,31.50
2022-08-19T16:32:10.712Z,31.38
2022-08-19T16:34:40.138Z,31.31
2022-08-19T16:37:07.274Z,31.20
2022-08-19T16:39:34.267Z,31.26
2022-08-19T16:42:01.436Z,31.11
2022-08-19T16:44:29.917Z,30.97
2022-08-19T16:46:59.825Z,31.01
2022-08-19T16:49:53.657Z,31.02
2022-08-19T16:52:16.788Z,31.07
2022-08-19T16:54:44.691Z,30.87
2022-08-19T16:57:13.065Z,30.87
2022-08-19T16:59:44.177Z,30.72
2022-08-19T17:02:23.296Z,30.86
2022-08-19T17:04:58.487Z,30.74
2022-08-19T17:07:28.385Z,30.77
2022-08-19T17:09:56.166Z,30.62
2022-08-19T17:12:31.559Z,30.50
2022-08-19T17:15:05.291Z,30.31
2022-08-19T17:17:33.000Z,30.44
2022-08-19T17:20:01.420Z,30.32
2022-08-19T17:22:28.838Z,30.48
2022-08-19T17:24:58.055Z,30.44
2022-08-19T17:27:31.390Z,30.55
2022-08-19T17:30:02.520Z,30.23
2022-08-19T17:32:33.231Z,30.19
2022-08-19T17:35:00.256Z,30.23
2022-08-19T17:37:28.204Z,30.22
2022-08-19T17:39:55.632Z,30.17
2022-08-19T17:42:22.668Z,29.98
2022-08-19T17:44:50.757Z,29.97
2022-08-19T17:47:19.390Z,29.91
2022-08-19T17:49:46.627Z,29.72
2022-08-19T17:52:13.639Z,29.70
2022-08-19T17:54:40.633Z,29.76
2022-08-19T17:57:08.510Z,29.70
2022-08-19T17:59:37.377Z,29.65
2022-08-19T18:02:07.564Z,29.39
2022-08-19T18:04:38.468Z,29.58
2022-08-19T18:07:06.298Z,29.45
2022-08-19T18:09:41.313Z,29.46
2022-08-19T18:12:11.723Z,29.34
2022-08-19T18:14:40.555Z,29.27
2022-08-19T18:17:13.622Z,29.22
2022-08-19T18:19:43.576Z,29.10
2022-08-19T18:22:25.248Z,29.07
2022-08-19T18:24:52.537Z,29.17
2022-08-19T18:27:19.889Z,29.01
2022-08-19T18:29:46.874Z,29.03
2022-08-19T18:32:18.168Z,28.91
2022-08-19T18:34:51.408Z,28.87
2022-08-19T18:37:18.996Z,28.84
2022-08-19T18:40:18.673Z,28.71
2022-08-19T18:43:05.394Z,28.86
2022-08-19T18:45:51.191Z,28.83
2022-08-19T18:48:36.931Z,28.72
2022-08-19T18:51:04.319Z,28.49
2022-08-19T18:53:34.981Z,28.60
2022-08-19T18:56:02.265Z,28.49
2022-08-19T18:58:35.008Z,28.52
2022-08-19T19:01:21.887Z,28.46
2022-08-19T19:03:53.439Z,28.57
2022-08-19T19:06:29.867Z,28.36
2022-08-19T19:08:57.710Z,28.25
2022-08-19T19:11:30.730Z,28.24
2022-08-19T19:13:59.590Z,28.08
2022-08-19T19:16:26.889Z,28.05
2022-08-19T19:18:53.827Z,27.86
2022-08-19T19:21:23.166Z,28.03
2022-08-19T19:23:54.811Z,27.98
2022-08-19T19:26:22.816Z,28.07
2022-08-19T19:28:51.392Z,28.13
2022-08-19T19:31:26.715Z,27.83
2022-08-19T19:33:55.785Z,27.84
2022-08-19T19:36:24.082Z,27.85
2022-08-19T19:38:51.180Z,28.04
2022-08-19T19:41:25.069Z,27.76
2022-08-19T19:44:23.229Z,27.64
2022-08-19T19:46:45.321Z,27.55
2022-08-19T19:49:13.196Z,27.55
2022-08-19T19:51:42.198Z,27.70
2022-08-19T19:54:21.739Z,27.57
2022-08-19T19:56:50.561Z,27.56
2022-08-19T19:59:18.636Z,27.48
2022-08-19T20:01:48.656Z,27.54
2022-08-19T20:04:17.382Z,27.41
2022-08-19T20:06:46.327Z,27.46
2022-08-19T20:09:19.700Z,27.27
2022-08-19T20:11:53.611Z,27.31
2022-08-19T20:14:32.888Z,27.20
2022-08-19T20:17:00.444Z,27.02
2022-08-19T20:19:34.267Z,27.17
2022-08-19T20:22:01.902Z,27.11
2022-08-19T20:24:35.229Z,27.20
2022-08-19T20:27:03.814Z,27.04
2022-08-19T20:29:39.356Z,26.94
2022-08-19T20:32:10.163Z,26.93
2022-08-19T20:34:37.723Z,26.82
2022-08-19T20:37:04.898Z,26.85
2022-08-19T20:39:32.078Z,26.72
2022-08-19T20:42:00.744Z,26.80
2022-08-19T20:44:27.756Z,26.73
2022-08-19T20:46:57.507Z,26.80
2022-08-19T20:49:26.946Z,26.72
2022-08-19T20:51:57.896Z,26.94
2022-08-19T20:54:25.893Z,26.77
2022-08-19T20:56:53.944Z,26.73
2022-08-19T20:59:23.038Z,26.72
2022-08-19T21:01:53.638Z,26.82
2022-08-19T21:04:21.743Z,26.74
2022-08-19T21:06:50.506Z,26.78
2022-08-19T21:09:17.737Z,26.54
2022-08-19T21:11:44.769Z,26.48
2022-08-19T21:14:12.856Z,26.57
2022-08-19T21:16:39.882Z,26.62
2022-08-19T21:19:06.824Z,26.57
2022-08-19T21:21:35.006Z,26.52
2022-08-19T21:24:02.274Z,26.75
2022-08-19T21:26:29.256Z,26.65
2022-08-19T21:28:56.274Z,26.78
2022-08-19T21:31:23.292Z,26.64
2022-08-19T21:33:50.236Z,26.35
2022-08-19T21:36:17.586Z,26.45
2022-08-19T21:38:44.576Z,26.46
2022-08-19T21:41:11.572Z,26.30
2022-08-19T21:43:39.112Z,26.38
2022-08-19T21:46:06.973Z,26.20
2022-08-19T21:48:34.103Z,26.08
2022-08-19T21:51:01.046Z,26.23
2022-08-19T21:53:34.306Z,26.23
2022-08-19T21:56:03.614Z,26.19
2022-08-19T21:58:30.978Z,26.25
2022-08-19T22:01:05.977Z,26.14
2022-08-19T22:03:35.876Z,26.05
2022-08-19T22:06:02.944Z,26.09
2022-08-19T22:08:31.482Z,26.04
2022-08-19T22:11:01.424Z,26.10
2022-08-19T22:13:29.874Z,25.92
2022-08-19T22:16:06.424Z,25.91
2022-08-19T22:18:35.106Z,26.04
2022-08-19T22:21:06.413Z,25.93
2022-08-19T22:23:36.554Z,26.08
2022-08-19T22:26:03.639Z,26.00
2022-08-19T22:28:30.626Z,26.07
2022-08-19T22:30:57.780Z,26.09
2022-08-19T22:33:26.209Z,25.92
2022-08-19T22:35:54.548Z,26.08
2022-08-19T22:38:22.915Z,26.05
2022-08-19T22:40:51.867Z,26.13
2022-08-19T22:43:26.065Z,26.07
2022-08-19T22:45:55.776Z,26.18
2022-08-19T22:48:28.143Z,26.20
2022-08-19T22:51:14.855Z,26.25
2022-08-19T22:53:46.046Z,26.27
2022-08-19T22:56:15.701Z,26.19
2022-08-19T22:58:43.420Z,26.15
2022-08-19T23:01:16.321Z,26.16
2022-08-19T23:03:57.372Z,26.35
2022-08-19T23:06:33.059Z,26.21
2022-08-19T23:09:04.538Z,26.22
2022-08-19T23:11:39.869Z,26.29
2022-08-19T23:14:10.457Z,26.34
2022-08-19T23:16:37.406Z,26.52
2022-08-19T23:19:07.271Z,26.67
2022-08-19T23:21:36.264Z,26.49
2022-08-19T23:24:04.214Z,26.72
2022-08-19T23:26:35.580Z,26.83
2022-08-19T23:29:22.684Z,26.70
2022-08-19T23:31:49.874Z,26.43
2022-08-19T23:34:18.072Z,26.31
2022-08-19T23:36:46.358Z,26.18
2022-08-19T23:39:13.317Z,26.15
2022-08-19T23:41:40.284Z,26.23
2022-08-19T23:44:14.584Z,26.23
2022-08-19T23:46:51.871Z,26.25
2022-08-19T23:49:21.774Z,26.28
2022-08-19T23:51:48.716Z,26.43
2022-08-19T23:54:15.681Z,26.21
2022-08-19T23:56:42.681Z,26.35
2022-08-19T23:59:09.652Z,26.46
